RKPC/CJU METAR and TAF weather

Enter ICAO airport designator
Station Type Date Time Source
RKPC METAR 2021/02/27 03:00 UTC NOAA

RKPC 270300Z 09030G42KT 9999 BKN035 12/04 Q1024 WS ALL RWY NOSIG


Station Type Date Time Source
RKPC Decoded METAR 2021/02/27 03:00 UTC NOAA

Cheju International Airport, Korea, South (RKPC) 33-30N 126-30E 28M
Feb 26, 2021 - 10:00 PM EST / 2021.02.27 0300 UTC
Wind: from the E (090 degrees) at 35 MPH (30 KT) gusting to 48 MPH (42 KT):0
Visibility: greater than 7 mile(s):0
Sky conditions: mostly cloudy
Temperature: 53 F (12 C)
Dew Point: 39 F (4 C)
Relative Humidity: 57%
Pressure (altimeter): 30.24 in. Hg (1024 hPa)
ob: RKPC 270300Z 09030G42KT 9999 BKN035 12/04 Q1024 WS ALL RWY NOSIG
cycle: 3

Station Type Date Time Source
RKPC TAF 2021/02/26 18:06 UTC NOAA

TAF TAF RKPC 261700Z 2618/2724 08028G45KT 9999 SCT030 BKN200 TN10/2622Z TX13/2705Z TN10/2719Z
BECMG 2708/2709 09022G35KT
BECMG 2711/2712 09015G25KT
BECMG 2718/2719 SCT030 OVC100

Example: see airport list